createdAt,value
2019-03-19T00:00:58.677Z,3.90
2019-03-19T00:03:27.593Z,3.90
2019-03-19T00:05:56.472Z,3.80
2019-03-19T00:08:25.423Z,3.80
2019-03-19T00:10:54.366Z,3.90
2019-03-19T00:13:23.260Z,3.80
2019-03-19T00:15:52.336Z,3.70
2019-03-19T00:18:21.342Z,3.70
2019-03-19T00:20:50.306Z,3.70
2019-03-19T00:23:19.435Z,3.70
2019-03-19T00:25:48.739Z,3.70
2019-03-19T00:28:17.659Z,3.80
2019-03-19T00:30:46.623Z,3.90
2019-03-19T00:33:15.584Z,3.80
2019-03-19T00:35:44.529Z,3.80
2019-03-19T00:38:13.500Z,3.80
2019-03-19T00:40:42.531Z,3.80
2019-03-19T00:43:11.509Z,3.80
2019-03-19T00:45:40.676Z,3.70
2019-03-19T00:48:09.617Z,3.60
2019-03-19T00:50:38.557Z,3.60
2019-03-19T00:53:07.503Z,3.60
2019-03-19T00:55:40.691Z,3.60
2019-03-19T00:58:07.199Z,3.60
2019-03-19T01:00:36.184Z,3.60
2019-03-19T01:03:05.277Z,3.50
2019-03-19T01:05:34.271Z,3.60
2019-03-19T01:08:03.285Z,3.50
2019-03-19T01:10:32.336Z,3.40
2019-03-19T01:13:01.438Z,3.40
2019-03-19T01:15:30.555Z,3.40
2019-03-19T01:17:59.549Z,3.40
2019-03-19T01:20:28.544Z,3.30
2019-03-19T01:22:57.566Z,3.20
2019-03-19T01:25:26.683Z,3.10
2019-03-19T01:27:55.639Z,3.10
2019-03-19T01:30:24.798Z,3.20
2019-03-19T01:32:53.815Z,3.20
2019-03-19T01:35:22.719Z,3.20
2019-03-19T01:37:51.765Z,3.10
2019-03-19T01:40:20.772Z,3.10
2019-03-19T01:42:49.796Z,3.00
2019-03-19T01:45:18.846Z,3.00
2019-03-19T01:47:47.785Z,2.90
2019-03-19T01:50:16.838Z,2.90
2019-03-19T01:52:46.064Z,2.90
2019-03-19T01:55:15.145Z,2.90
2019-03-19T01:57:44.172Z,2.90
2019-03-19T02:00:13.155Z,2.90
2019-03-19T02:02:42.055Z,2.90
2019-03-19T02:05:11.191Z,3.00
2019-03-19T02:07:40.101Z,3.10
2019-03-19T02:10:09.581Z,3.20
2019-03-19T02:12:38.635Z,3.30
2019-03-19T02:15:08.717Z,3.40
2019-03-19T02:17:37.637Z,3.60
2019-03-19T02:20:08.295Z,3.60
2019-03-19T02:22:37.300Z,3.70
2019-03-19T02:25:07.294Z,3.80
2019-03-19T02:27:36.485Z,3.80
2019-03-19T02:30:06.164Z,3.80
2019-03-19T02:32:35.116Z,3.70
2019-03-19T02:35:04.434Z,3.70
2019-03-19T02:37:33.440Z,3.60
2019-03-19T02:40:02.455Z,3.70
2019-03-19T02:42:31.374Z,3.80
2019-03-19T02:45:00.531Z,3.90
2019-03-19T02:47:29.469Z,3.90
2019-03-19T02:49:58.416Z,4.00
2019-03-19T02:52:27.301Z,4.10
2019-03-19T02:54:56.346Z,4.20
2019-03-19T02:57:25.550Z,4.20
2019-03-19T02:59:54.455Z,4.20
2019-03-19T03:02:23.599Z,4.30
2019-03-19T03:04:52.717Z,4.20
2019-03-19T03:07:22.500Z,4.20
2019-03-19T03:09:51.316Z,4.10
2019-03-19T03:12:20.292Z,3.90
2019-03-19T03:14:49.244Z,3.80
2019-03-19T03:17:18.260Z,3.70
2019-03-19T03:19:47.272Z,3.70
2019-03-19T03:22:16.232Z,3.80
2019-03-19T03:24:45.031Z,3.90
2019-03-19T03:27:13.924Z,4.00
2019-03-19T03:29:42.865Z,4.10
2019-03-19T03:32:11.843Z,4.10
2019-03-19T03:34:40.792Z,4.20
2019-03-19T03:37:09.806Z,4.20
2019-03-19T03:39:41.220Z,4.20
2019-03-19T03:42:10.311Z,4.20
2019-03-19T03:44:39.990Z,4.10
2019-03-19T03:47:08.952Z,4.00
2019-03-19T03:49:37.963Z,3.90
2019-03-19T03:52:07.101Z,3.80
2019-03-19T03:54:36.286Z,3.70
2019-03-19T03:57:05.281Z,3.70
2019-03-19T03:59:34.337Z,3.70
2019-03-19T04:02:03.421Z,3.70
2019-03-19T04:04:32.666Z,3.70
2019-03-19T04:07:01.749Z,3.60
2019-03-19T04:09:30.786Z,3.60
2019-03-19T04:11:59.680Z,3.70
2019-03-19T04:14:28.764Z,3.70
2019-03-19T04:16:57.717Z,3.70
2019-03-19T04:19:26.796Z,3.70
2019-03-19T04:21:55.936Z,3.70
2019-03-19T04:24:24.908Z,3.80
2019-03-19T04:26:53.998Z,3.80
2019-03-19T04:29:23.128Z,3.90
2019-03-19T04:31:52.106Z,4.00
2019-03-19T04:34:20.970Z,3.90
2019-03-19T04:36:49.901Z,3.90
2019-03-19T04:39:18.754Z,3.90
2019-03-19T04:41:47.875Z,3.90
2019-03-19T04:44:16.907Z,3.90
2019-03-19T04:46:46.005Z,3.90
2019-03-19T04:49:14.981Z,3.90
2019-03-19T04:51:43.861Z,3.80
2019-03-19T04:54:12.781Z,3.80
2019-03-19T04:56:41.717Z,3.80
2019-03-19T04:59:10.569Z,3.80
2019-03-19T05:01:39.511Z,3.90
2019-03-19T05:04:08.489Z,4.00
2019-03-19T05:06:37.407Z,4.10
2019-03-19T05:09:07.959Z,4.10
2019-03-19T05:11:37.007Z,4.20
2019-03-19T05:14:05.960Z,4.20
2019-03-19T05:16:34.933Z,4.30
2019-03-19T05:19:03.937Z,4.30
2019-03-19T05:21:32.865Z,4.30
2019-03-19T05:24:01.928Z,4.20
2019-03-19T05:26:30.901Z,4.10
2019-03-19T05:28:59.838Z,4.10
2019-03-19T05:31:28.710Z,4.00
2019-03-19T05:33:57.715Z,4.00
2019-03-19T05:36:26.844Z,3.90
2019-03-19T05:38:56.016Z,3.80
2019-03-19T05:41:24.868Z,3.80
2019-03-19T05:43:53.780Z,3.70
2019-03-19T05:46:22.739Z,3.70
2019-03-19T05:48:51.681Z,3.60
2019-03-19T05:51:20.572Z,3.70
2019-03-19T05:53:49.544Z,3.60
2019-03-19T05:56:18.480Z,3.60
2019-03-19T05:58:47.315Z,3.60
2019-03-19T06:01:16.189Z,3.50
2019-03-19T06:03:45.079Z,3.40
2019-03-19T06:06:13.983Z,3.40
2019-03-19T06:08:42.856Z,3.40
2019-03-19T06:11:11.712Z,3.40
2019-03-19T06:13:40.603Z,3.40
2019-03-19T06:16:09.929Z,3.40
2019-03-19T06:18:38.906Z,3.40
2019-03-19T06:21:07.867Z,3.40
2019-03-19T06:23:36.931Z,3.30
2019-03-19T06:26:05.985Z,3.40
2019-03-19T06:28:35.745Z,3.40
2019-03-19T06:31:04.936Z,3.40
2019-03-19T06:33:33.755Z,3.40
2019-03-19T06:36:02.595Z,3.40
2019-03-19T06:38:31.496Z,3.50
2019-03-19T06:41:04.948Z,3.50
2019-03-19T06:43:33.799Z,3.50
2019-03-19T06:46:02.677Z,3.50
2019-03-19T06:48:31.535Z,3.60
2019-03-19T06:51:00.456Z,3.60
2019-03-19T06:53:29.291Z,3.60
2019-03-19T06:55:58.128Z,3.60
2019-03-19T06:58:33.413Z,3.70
2019-03-19T07:01:02.261Z,3.80
2019-03-19T07:03:31.139Z,3.90
2019-03-19T07:06:08.662Z,3.90
2019-03-19T07:08:37.602Z,4.00
2019-03-19T07:11:06.435Z,4.00
2019-03-19T07:13:35.256Z,4.00
2019-03-19T07:16:04.322Z,4.00
2019-03-19T07:18:33.907Z,4.10
2019-03-19T07:21:02.807Z,4.10
2019-03-19T07:23:31.771Z,4.20
2019-03-19T07:26:00.587Z,4.20
2019-03-19T07:28:29.420Z,4.30
2019-03-19T07:30:58.303Z,4.30
2019-03-19T07:33:27.370Z,4.40
2019-03-19T07:35:56.743Z,4.40
2019-03-19T07:38:25.800Z,4.50
2019-03-19T07:40:55.113Z,4.60
2019-03-19T07:43:29.544Z,4.70
2019-03-19T07:46:09.195Z,4.80
2019-03-19T07:51:39.471Z,5.30
2019-03-19T07:54:19.341Z,5.40
2019-03-19T07:56:54.363Z,5.50
2019-03-19T07:59:27.616Z,5.60
2019-03-19T08:02:03.289Z,5.60
2019-03-19T08:07:26.651Z,5.60
2019-03-19T08:10:00.121Z,5.70
2019-03-19T08:12:29.414Z,5.80
2019-03-19T08:14:58.664Z,5.70
2019-03-19T08:17:29.640Z,5.70
2019-03-19T08:20:17.877Z,5.70
2019-03-19T08:22:49.534Z,5.70
2019-03-19T08:25:18.831Z,5.70
2019-03-19T08:28:07.174Z,5.70
2019-03-19T08:30:40.025Z,5.80
2019-03-19T08:33:10.528Z,5.80
2019-03-19T08:35:43.957Z,6.00
2019-03-19T08:38:12.607Z,6.10
2019-03-19T08:40:41.638Z,6.20
2019-03-19T08:43:10.693Z,6.20
2019-03-19T08:45:41.985Z,6.30
2019-03-19T08:48:12.203Z,6.30
2019-03-19T08:50:41.060Z,6.30
2019-03-19T08:53:09.953Z,6.30
2019-03-19T08:55:39.010Z,6.40
2019-03-19T08:58:07.839Z,6.50
2019-03-19T09:00:36.750Z,6.60
2019-03-19T09:03:05.712Z,6.70
2019-03-19T09:05:35.073Z,6.70
2019-03-19T09:08:04.140Z,6.60
2019-03-19T09:10:33.044Z,6.70
2019-03-19T09:13:01.865Z,6.90
2019-03-19T09:15:30.858Z,7.00
2019-03-19T09:18:00.049Z,7.10
2019-03-19T09:20:29.208Z,7.00
2019-03-19T09:22:59.810Z,6.90
2019-03-19T09:25:28.856Z,6.90
2019-03-19T09:28:03.248Z,6.90
2019-03-19T09:30:37.017Z,6.90
2019-03-19T09:33:06.040Z,7.10
2019-03-19T09:35:36.020Z,7.10
2019-03-19T09:38:07.110Z,7.20
2019-03-19T09:40:39.628Z,7.30
2019-03-19T09:43:15.616Z,7.40
2019-03-19T09:46:18.580Z,7.50
2019-03-19T09:49:21.076Z,7.50
2019-03-19T09:52:12.228Z,7.60
2019-03-19T09:54:44.060Z,7.80
2019-03-19T09:57:15.974Z,7.90
2019-03-19T09:59:53.724Z,7.90
2019-03-19T10:02:23.844Z,7.70
2019-03-19T10:04:53.043Z,7.50
2019-03-19T10:07:21.979Z,7.40
2019-03-19T10:09:50.795Z,7.30
2019-03-19T10:12:19.640Z,7.20
2019-03-19T10:14:48.586Z,7.30
2019-03-19T10:17:17.436Z,7.40
2019-03-19T10:19:46.648Z,7.40
2019-03-19T10:22:15.612Z,7.60
2019-03-19T10:24:44.935Z,7.60
2019-03-19T10:27:14.102Z,7.70
2019-03-19T10:29:43.095Z,7.70
2019-03-19T10:32:12.075Z,7.70
2019-03-19T10:34:40.966Z,7.70
2019-03-19T10:37:09.997Z,7.70
2019-03-19T10:39:39.115Z,7.80
2019-03-19T10:42:08.173Z,8.00
2019-03-19T10:44:37.320Z,8.00
2019-03-19T10:47:06.344Z,8.10
2019-03-19T10:49:35.261Z,8.10
2019-03-19T10:52:04.436Z,8.20
2019-03-19T10:54:33.590Z,8.00
2019-03-19T10:57:02.472Z,8.10
2019-03-19T10:59:31.369Z,8.10
2019-03-19T11:02:00.414Z,8.10
2019-03-19T11:05:36.777Z,8.30
2019-03-19T11:16:03.260Z,8.60
2019-03-19T11:18:40.414Z,8.50
2019-03-19T11:21:37.502Z,8.40
2019-03-19T11:24:31.114Z,8.40
2019-03-19T11:27:21.085Z,8.50
2019-03-19T11:29:59.442Z,8.50
2019-03-19T11:32:21.808Z,8.60
2019-03-19T11:35:42.103Z,8.60
2019-03-19T11:41:38.239Z,8.80
2019-03-19T11:44:56.167Z,8.80
2019-03-19T11:47:28.645Z,8.70
2019-03-19T11:50:02.111Z,8.60
2019-03-19T11:52:58.639Z,8.60
2019-03-19T11:56:13.590Z,8.70
2019-03-19T11:58:47.136Z,8.70
2019-03-19T12:01:37.939Z,8.60
2019-03-19T12:04:08.274Z,8.50
2019-03-19T12:06:40.038Z,8.50
2019-03-19T12:09:40.174Z,8.50
2019-03-19T12:12:20.720Z,8.60
2019-03-19T12:14:50.288Z,8.70
2019-03-19T12:17:22.991Z,8.80
2019-03-19T12:26:01.802Z,8.40
2019-03-19T12:29:40.258Z,8.30
2019-03-19T12:32:51.193Z,8.20
2019-03-19T12:36:36.814Z,8.20
2019-03-19T12:39:09.999Z,8.20
2019-03-19T12:42:01.586Z,8.20
2019-03-19T12:47:48.607Z,8.10
2019-03-19T12:53:20.640Z,8.40
2019-03-19T12:56:32.669Z,8.60
2019-03-19T12:59:28.544Z,8.60
2019-03-19T13:02:07.218Z,8.80
2019-03-19T13:04:56.903Z,8.90
2019-03-19T13:07:26.076Z,8.90
2019-03-19T13:10:14.582Z,8.90
2019-03-19T13:12:43.762Z,8.80
2019-03-19T13:15:19.063Z,8.90
2019-03-19T13:18:17.361Z,9.00
2019-03-19T13:20:53.606Z,9.10
2019-03-19T13:23:22.937Z,9.20
2019-03-19T13:25:56.682Z,9.20
2019-03-19T13:28:28.326Z,9.10
2019-03-19T13:30:57.633Z,9.10
2019-03-19T13:33:27.463Z,9.10
2019-03-19T13:35:59.316Z,9.10
2019-03-19T13:38:28.653Z,9.10
2019-03-19T13:40:57.912Z,9.10
2019-03-19T13:43:27.284Z,9.30
2019-03-19T13:46:05.904Z,9.20
2019-03-19T13:48:34.975Z,9.20
2019-03-19T13:51:04.456Z,9.20
2019-03-19T13:53:41.935Z,9.10
2019-03-19T13:56:16.273Z,9.10
2019-03-19T13:59:13.650Z,9.10
2019-03-19T14:01:42.701Z,9.10
2019-03-19T14:04:12.308Z,9.00
2019-03-19T14:06:41.438Z,8.90
2019-03-19T14:09:10.674Z,8.90
2019-03-19T14:11:50.586Z,8.90
2019-03-19T14:14:20.038Z,8.90
2019-03-19T14:16:51.606Z,9.00
2019-03-19T14:19:21.645Z,9.00
2019-03-19T14:21:50.531Z,9.10
2019-03-19T14:24:21.231Z,9.20
2019-03-19T14:27:13.292Z,9.40
2019-03-19T14:29:51.683Z,9.50
2019-03-19T14:32:44.414Z,9.50
2019-03-19T14:35:13.652Z,9.50
2019-03-19T14:37:44.712Z,9.40
2019-03-19T14:40:18.656Z,9.30
2019-03-19T14:42:48.007Z,9.30
2019-03-19T14:45:19.433Z,9.20
2019-03-19T14:47:48.945Z,9.20
2019-03-19T14:50:18.081Z,9.10
2019-03-19T14:52:47.109Z,8.90
2019-03-19T14:55:16.192Z,8.60
2019-03-19T15:01:04.225Z,8.30
2019-03-19T15:03:33.744Z,8.30
2019-03-19T15:06:37.635Z,8.30
2019-03-19T15:09:02.221Z,8.30
2019-03-19T15:11:59.013Z,8.30
2019-03-19T15:14:29.312Z,8.40
2019-03-19T15:17:05.133Z,8.30
2019-03-19T15:19:34.604Z,8.30
2019-03-19T15:22:03.991Z,8.30
2019-03-19T15:24:33.233Z,8.50
2019-03-19T15:27:02.129Z,8.60
2019-03-19T15:29:32.413Z,8.60
2019-03-19T15:32:16.148Z,8.60
2019-03-19T15:35:36.026Z,8.50
2019-03-19T15:41:48.795Z,8.40
2019-03-19T15:44:18.739Z,8.30
2019-03-19T15:46:50.766Z,8.20
2019-03-19T15:49:19.741Z,8.20
2019-03-19T15:51:48.692Z,8.30
2019-03-19T15:54:17.632Z,8.40
2019-03-19T15:56:46.697Z,8.40
2019-03-19T15:59:15.575Z,8.40
2019-03-19T16:01:44.665Z,8.50
2019-03-19T16:04:13.772Z,8.60
2019-03-19T16:06:42.614Z,8.60
2019-03-19T16:09:11.528Z,8.70
2019-03-19T16:11:40.355Z,8.80
2019-03-19T16:14:09.230Z,8.80
2019-03-19T16:16:39.030Z,8.80
2019-03-19T16:19:08.135Z,8.70
2019-03-19T16:21:37.199Z,8.50
2019-03-19T16:24:06.153Z,8.40
2019-03-19T16:26:35.075Z,8.40
2019-03-19T16:29:04.030Z,8.40
2019-03-19T16:31:32.958Z,8.30
2019-03-19T16:34:01.807Z,8.40
2019-03-19T16:36:30.740Z,8.30
2019-03-19T16:39:00.129Z,8.30
2019-03-19T16:41:29.172Z,8.30
2019-03-19T16:44:00.915Z,8.10
2019-03-19T16:46:31.428Z,8.00
2019-03-19T16:49:05.142Z,8.00
2019-03-19T16:51:36.534Z,7.90
2019-03-19T16:54:08.954Z,7.80
2019-03-19T16:56:37.967Z,7.80
2019-03-19T16:59:07.200Z,7.70
2019-03-19T17:01:36.637Z,7.60
2019-03-19T17:04:09.562Z,7.50
2019-03-19T17:06:38.644Z,7.50
2019-03-19T17:09:08.338Z,7.40
2019-03-19T17:11:37.249Z,7.40
2019-03-19T17:14:06.291Z,7.30
2019-03-19T17:16:35.217Z,7.30
2019-03-19T17:19:04.235Z,7.20
2019-03-19T17:21:33.183Z,7.20
2019-03-19T17:24:02.302Z,7.10
2019-03-19T17:26:31.360Z,7.00
2019-03-19T17:29:00.600Z,7.00
2019-03-19T17:31:29.564Z,6.90
2019-03-19T17:33:59.958Z,7.00
2019-03-19T17:36:29.124Z,7.00
2019-03-19T17:39:17.278Z,6.90
2019-03-19T17:41:46.308Z,6.80
2019-03-19T17:44:15.438Z,6.70
2019-03-19T17:46:44.424Z,6.70
2019-03-19T17:49:13.605Z,6.70
2019-03-19T17:51:42.643Z,6.60
2019-03-19T17:54:11.639Z,6.50
2019-03-19T17:56:41.167Z,6.50
2019-03-19T17:59:10.611Z,6.40
2019-03-19T18:01:40.075Z,6.40
2019-03-19T18:04:09.365Z,6.40
2019-03-19T18:06:38.750Z,6.20
2019-03-19T18:09:08.531Z,6.20
2019-03-19T18:11:37.508Z,6.20
2019-03-19T18:14:06.424Z,6.20
2019-03-19T18:16:35.545Z,6.20
2019-03-19T18:19:04.596Z,6.10
2019-03-19T18:21:33.590Z,6.00
2019-03-19T18:24:02.702Z,6.00
2019-03-19T18:26:31.640Z,5.90
2019-03-19T18:29:00.730Z,5.80
2019-03-19T18:31:29.931Z,5.90
2019-03-19T18:34:09.664Z,5.90
2019-03-19T18:36:29.647Z,5.80
2019-03-19T18:38:58.840Z,5.80
2019-03-19T18:41:28.042Z,5.90
2019-03-19T18:43:56.952Z,5.80
2019-03-19T18:46:25.991Z,5.70
2019-03-19T18:48:55.232Z,5.60
2019-03-19T18:51:26.681Z,5.60
2019-03-19T18:53:55.749Z,5.50
2019-03-19T18:56:25.222Z,5.60
2019-03-19T18:58:54.690Z,5.60
2019-03-19T19:01:24.642Z,5.50
2019-03-19T19:03:54.177Z,5.50
2019-03-19T19:06:23.284Z,5.30
2019-03-19T19:08:52.978Z,5.30
2019-03-19T19:11:22.331Z,5.30
2019-03-19T19:13:51.563Z,5.20
2019-03-19T19:16:20.919Z,5.20
2019-03-19T19:18:50.099Z,5.10
2019-03-19T19:21:19.231Z,5.10
2019-03-19T19:23:48.753Z,5.10
2019-03-19T19:26:17.672Z,5.10
2019-03-19T19:28:47.840Z,5.10
2019-03-19T19:31:16.975Z,5.00
2019-03-19T19:33:48.311Z,5.00
2019-03-19T19:36:17.857Z,4.90
2019-03-19T19:38:47.281Z,4.80
2019-03-19T19:41:16.637Z,4.80
2019-03-19T19:43:46.054Z,4.70
2019-03-19T19:46:15.605Z,4.70
2019-03-19T19:48:44.749Z,4.60
2019-03-19T19:51:13.960Z,4.60
2019-03-19T19:53:43.040Z,4.60
2019-03-19T19:56:12.088Z,4.50
2019-03-19T19:58:41.151Z,4.50
2019-03-19T20:01:10.277Z,4.50
2019-03-19T20:03:39.397Z,4.50
2019-03-19T20:06:08.679Z,4.40
2019-03-19T20:08:38.068Z,4.40
2019-03-19T20:11:13.043Z,4.30
2019-03-19T20:13:42.117Z,4.30
2019-03-19T20:16:11.101Z,4.30
2019-03-19T20:18:40.202Z,4.30
2019-03-19T20:21:09.325Z,4.30
2019-03-19T20:23:38.537Z,4.30
2019-03-19T20:26:07.589Z,4.30
2019-03-19T20:28:36.684Z,4.30
2019-03-19T20:31:05.726Z,4.30
2019-03-19T20:33:34.806Z,4.30
2019-03-19T20:36:03.920Z,4.30
2019-03-19T20:38:33.076Z,4.30
2019-03-19T20:41:02.007Z,4.30
2019-03-19T20:43:31.029Z,4.30
2019-03-19T20:46:00.237Z,4.30
2019-03-19T20:48:29.291Z,4.30
2019-03-19T20:50:58.911Z,4.30
2019-03-19T20:53:30.876Z,4.30
2019-03-19T20:56:00.785Z,4.30
2019-03-19T20:58:43.163Z,4.30
2019-03-19T21:01:05.967Z,4.20
2019-03-19T21:03:36.556Z,4.20
2019-03-19T21:06:05.648Z,4.10
2019-03-19T21:08:34.863Z,4.10
2019-03-19T21:11:04.113Z,4.00
2019-03-19T21:13:35.159Z,3.90
2019-03-19T21:16:07.351Z,3.90
2019-03-19T21:18:36.448Z,3.90
2019-03-19T21:21:05.491Z,4.00
2019-03-19T21:23:34.678Z,4.00
2019-03-19T21:26:09.836Z,3.90
2019-03-19T21:28:39.079Z,4.00
2019-03-19T21:31:08.676Z,4.00
2019-03-19T21:33:37.839Z,4.00
2019-03-19T21:36:06.979Z,4.00
2019-03-19T21:38:36.122Z,4.00
2019-03-19T21:41:05.147Z,4.00
2019-03-19T21:43:34.396Z,3.90
2019-03-19T21:46:06.124Z,3.90
2019-03-19T21:48:35.102Z,3.90
2019-03-19T21:51:04.205Z,3.90
2019-03-19T21:53:33.297Z,3.80
2019-03-19T21:56:02.459Z,3.80
2019-03-19T21:58:31.597Z,3.80
2019-03-19T22:01:00.633Z,3.70
2019-03-19T22:03:48.951Z,3.70
2019-03-19T22:06:18.118Z,3.60
2019-03-19T22:08:47.127Z,3.60
2019-03-19T22:11:16.264Z,3.60
2019-03-19T22:13:51.201Z,3.50
2019-03-19T22:16:20.288Z,3.50
2019-03-19T22:18:49.319Z,3.40
2019-03-19T22:21:18.379Z,3.40
2019-03-19T22:23:47.498Z,3.40
2019-03-19T22:26:16.721Z,3.40
2019-03-19T22:28:45.867Z,3.30
2019-03-19T22:31:14.948Z,3.30
2019-03-19T22:33:44.132Z,3.30
2019-03-19T22:36:13.383Z,3.30
2019-03-19T22:38:42.332Z,3.30
2019-03-19T22:41:11.415Z,3.30
2019-03-19T22:43:40.395Z,3.30
2019-03-19T22:46:21.348Z,3.40
2019-03-19T22:48:41.391Z,3.30
2019-03-19T22:51:11.499Z,3.40
2019-03-19T22:53:41.037Z,3.50
2019-03-19T22:56:10.165Z,3.50
2019-03-19T22:58:39.193Z,3.60
2019-03-19T23:01:08.786Z,3.60
2019-03-19T23:03:37.976Z,3.70
2019-03-19T23:06:07.043Z,3.70
2019-03-19T23:08:36.054Z,3.70
2019-03-19T23:11:05.337Z,3.80
2019-03-19T23:13:34.447Z,3.80
2019-03-19T23:16:03.492Z,3.80
2019-03-19T23:18:32.471Z,3.70
2019-03-19T23:21:01.623Z,3.70
2019-03-19T23:23:30.743Z,3.70
2019-03-19T23:25:59.898Z,3.60
2019-03-19T23:28:28.915Z,3.60
2019-03-19T23:30:57.937Z,3.50
2019-03-19T23:33:27.205Z,3.40
2019-03-19T23:35:56.278Z,3.40
2019-03-19T23:38:25.227Z,3.30
2019-03-19T23:40:55.063Z,3.30
2019-03-19T23:43:24.109Z,3.20
2019-03-19T23:45:53.090Z,3.10
2019-03-19T23:48:22.099Z,3.10
2019-03-19T23:50:51.264Z,3.10
2019-03-19T23:53:20.418Z,3.10
2019-03-19T23:55:49.416Z,3.00
2019-03-19T23:58:18.521Z,3.00
